createdAt,value
2022-07-29T00:01:43.497Z,23.04
2022-07-29T00:04:11.188Z,23.00
2022-07-29T00:06:38.750Z,22.96
2022-07-29T00:09:06.302Z,22.85
2022-07-29T00:11:33.883Z,22.75
2022-07-29T00:14:01.346Z,22.59
2022-07-29T00:16:29.117Z,22.41
2022-07-29T00:18:57.302Z,22.15
2022-07-29T00:21:27.370Z,21.97
2022-07-29T00:23:54.766Z,21.87
2022-07-29T00:26:22.233Z,21.82
2022-07-29T00:28:49.635Z,21.79
2022-07-29T00:31:17.223Z,21.82
2022-07-29T00:33:44.685Z,21.87
2022-07-29T00:36:12.115Z,21.92
2022-07-29T00:38:39.496Z,22.03
2022-07-29T00:41:06.864Z,22.07
2022-07-29T00:43:34.201Z,22.03
2022-07-29T00:46:01.531Z,22.08
2022-07-29T00:48:28.837Z,22.13
2022-07-29T00:50:57.506Z,22.22
2022-07-29T00:53:24.994Z,21.89
2022-07-29T00:55:52.792Z,21.79
2022-07-29T00:58:20.753Z,21.57
2022-07-29T01:00:48.053Z,21.42
2022-07-29T01:03:15.467Z,21.29
2022-07-29T01:05:48.187Z,21.34
2022-07-29T01:08:18.975Z,21.36
2022-07-29T01:10:46.318Z,21.34
2022-07-29T01:13:13.705Z,21.36
2022-07-29T01:15:48.992Z,21.29
2022-07-29T01:18:37.133Z,21.34
2022-07-29T01:21:23.773Z,21.52
2022-07-29T01:24:21.086Z,21.49
2022-07-29T01:27:27.221Z,21.46
2022-07-29T01:29:56.588Z,21.32
2022-07-29T01:32:34.208Z,21.41
2022-07-29T01:35:11.757Z,21.52
2022-07-29T01:38:02.834Z,21.73
2022-07-29T01:40:48.264Z,21.57
2022-07-29T01:43:20.659Z,21.59
2022-07-29T01:45:49.730Z,21.57
2022-07-29T01:48:24.195Z,21.43
2022-07-29T01:51:01.540Z,21.18
2022-07-29T01:53:38.070Z,21.14
2022-07-29T01:56:06.235Z,21.45
2022-07-29T01:58:33.541Z,21.60
2022-07-29T02:01:01.378Z,21.73
2022-07-29T02:03:28.654Z,21.69
2022-07-29T02:05:56.239Z,21.63
2022-07-29T02:08:23.474Z,21.63
2022-07-29T02:10:50.806Z,21.46
2022-07-29T02:13:18.136Z,21.26
2022-07-29T02:15:45.630Z,21.32
2022-07-29T02:18:18.290Z,21.12
2022-07-29T02:20:49.874Z,20.98
2022-07-29T02:23:20.938Z,20.98
2022-07-29T02:25:49.516Z,20.92
2022-07-29T02:28:17.760Z,20.88
2022-07-29T02:30:45.503Z,20.92
2022-07-29T02:33:14.372Z,20.84
2022-07-29T02:35:41.938Z,20.88
2022-07-29T02:38:28.778Z,20.90
2022-07-29T02:40:56.170Z,20.91
2022-07-29T02:43:23.470Z,20.74
2022-07-29T02:45:52.766Z,20.61
2022-07-29T02:48:20.182Z,20.58
2022-07-29T02:50:52.590Z,20.76
2022-07-29T02:53:21.043Z,20.74
2022-07-29T02:55:52.702Z,20.63
2022-07-29T02:58:27.439Z,20.66
2022-07-29T03:00:54.942Z,20.74
2022-07-29T03:03:22.507Z,20.91
2022-07-29T03:05:50.040Z,21.16
2022-07-29T03:08:17.375Z,21.19
2022-07-29T03:10:45.782Z,21.02
2022-07-29T03:13:13.651Z,20.97
2022-07-29T03:15:41.241Z,20.99
2022-07-29T03:18:09.298Z,21.05
2022-07-29T03:20:36.752Z,21.08
2022-07-29T03:23:04.185Z,21.16
2022-07-29T03:25:31.593Z,21.25
2022-07-29T03:27:58.901Z,21.19
2022-07-29T03:30:26.584Z,21.07
2022-07-29T03:32:54.643Z,21.05
2022-07-29T03:35:24.158Z,21.11
2022-07-29T03:37:51.430Z,21.02
2022-07-29T03:40:32.906Z,21.01
2022-07-29T03:43:00.443Z,20.91
2022-07-29T03:45:27.717Z,20.99
2022-07-29T03:48:00.551Z,20.94
2022-07-29T03:50:30.001Z,20.92
2022-07-29T03:52:57.423Z,20.85
2022-07-29T03:55:24.878Z,20.81
2022-07-29T03:57:52.238Z,20.77
2022-07-29T04:00:20.714Z,20.84
2022-07-29T04:02:49.960Z,20.85
2022-07-29T04:05:17.922Z,20.88
2022-07-29T04:07:48.856Z,20.90
2022-07-29T04:10:30.271Z,21.07
2022-07-29T04:13:00.435Z,21.22
2022-07-29T04:15:31.367Z,21.38
2022-07-29T04:18:00.188Z,21.43
2022-07-29T04:20:27.922Z,21.29
2022-07-29T04:22:55.445Z,21.31
2022-07-29T04:25:22.762Z,21.19
2022-07-29T04:28:02.474Z,21.24
2022-07-29T04:30:31.062Z,21.19
2022-07-29T04:32:58.488Z,21.16
2022-07-29T04:35:26.054Z,21.31
2022-07-29T04:37:53.436Z,21.34
2022-07-29T04:40:20.920Z,21.39
2022-07-29T04:42:48.285Z,21.53
2022-07-29T04:45:16.948Z,21.79
2022-07-29T04:47:50.523Z,21.93
2022-07-29T04:50:17.862Z,22.03
2022-07-29T04:52:45.255Z,22.11
2022-07-29T04:55:12.682Z,22.20
2022-07-29T04:57:39.991Z,22.34
2022-07-29T05:00:07.889Z,22.28
2022-07-29T05:02:35.389Z,22.20
2022-07-29T05:05:02.668Z,22.24
2022-07-29T05:07:30.121Z,22.24
2022-07-29T05:09:58.155Z,22.18
2022-07-29T05:12:26.006Z,22.33
2022-07-29T05:14:53.432Z,22.31
2022-07-29T05:17:20.914Z,22.30
2022-07-29T05:19:48.161Z,22.31
2022-07-29T05:22:15.798Z,22.44
2022-07-29T05:24:43.178Z,22.58
2022-07-29T05:27:10.670Z,22.63
2022-07-29T05:29:44.703Z,22.76
2022-07-29T05:32:16.122Z,22.81
2022-07-29T05:34:50.938Z,22.81
2022-07-29T05:37:20.608Z,22.86
2022-07-29T05:39:56.153Z,23.10
2022-07-29T05:42:25.426Z,23.13
2022-07-29T05:44:53.026Z,23.10
2022-07-29T05:47:20.401Z,23.24
2022-07-29T05:49:48.007Z,23.41
2022-07-29T05:52:15.932Z,23.64
2022-07-29T05:54:43.373Z,23.61
2022-07-29T05:57:21.080Z,23.75
2022-07-29T05:59:49.205Z,23.79
2022-07-29T06:02:16.725Z,23.78
2022-07-29T06:04:44.428Z,23.91
2022-07-29T06:07:12.450Z,24.04
2022-07-29T06:09:39.967Z,24.23
2022-07-29T06:12:07.461Z,24.55
2022-07-29T06:14:34.954Z,24.80
2022-07-29T06:17:02.544Z,24.87
2022-07-29T06:19:30.197Z,24.97
2022-07-29T06:21:57.592Z,25.26
2022-07-29T06:24:25.157Z,25.39
2022-07-29T06:26:52.512Z,25.50
2022-07-29T06:29:20.420Z,25.79
2022-07-29T06:31:47.719Z,25.92
2022-07-29T06:34:15.430Z,25.93
2022-07-29T06:36:42.955Z,25.92
2022-07-29T06:39:11.675Z,25.80
2022-07-29T06:41:39.674Z,25.82
2022-07-29T06:44:16.604Z,27.10
2022-07-29T06:46:44.783Z,28.87
2022-07-29T06:49:13.644Z,29.90
2022-07-29T06:51:41.222Z,31.26
2022-07-29T06:54:08.929Z,31.53
2022-07-29T06:56:40.118Z,31.94
2022-07-29T06:59:09.493Z,32.07
2022-07-29T07:01:42.001Z,32.32
2022-07-29T07:04:12.674Z,32.55
2022-07-29T07:06:40.331Z,32.93
2022-07-29T07:09:07.705Z,33.93
2022-07-29T07:11:35.287Z,33.48
2022-07-29T07:14:14.829Z,32.66
2022-07-29T07:16:42.481Z,33.55
2022-07-29T07:19:09.901Z,33.71
2022-07-29T07:21:37.553Z,33.66
2022-07-29T07:24:05.278Z,34.13
2022-07-29T07:26:33.499Z,33.88
2022-07-29T07:29:01.718Z,34.67
2022-07-29T07:31:29.437Z,34.87
2022-07-29T07:33:56.848Z,35.46
2022-07-29T07:36:24.498Z,35.49
2022-07-29T07:38:51.817Z,36.01
2022-07-29T07:41:19.226Z,34.74
2022-07-29T07:43:46.711Z,35.14
2022-07-29T07:46:14.432Z,34.53
2022-07-29T07:48:41.833Z,34.40
2022-07-29T07:51:09.174Z,35.08
2022-07-29T07:53:36.751Z,35.42
2022-07-29T07:56:11.003Z,35.90
2022-07-29T07:58:39.877Z,36.41
2022-07-29T08:01:07.836Z,35.34
2022-07-29T08:03:35.555Z,35.42
2022-07-29T08:06:03.997Z,35.79
2022-07-29T08:08:31.455Z,36.45
2022-07-29T08:11:00.598Z,35.28
2022-07-29T08:13:31.558Z,35.75
2022-07-29T08:15:59.261Z,35.43
2022-07-29T08:18:27.545Z,34.71
2022-07-29T08:20:55.141Z,35.17
2022-07-29T08:23:24.015Z,35.07
2022-07-29T08:25:54.787Z,34.35
2022-07-29T08:28:26.038Z,34.78
2022-07-29T08:30:53.693Z,34.92
2022-07-29T08:33:21.021Z,35.39
2022-07-29T08:35:48.523Z,35.97
2022-07-29T08:38:15.860Z,36.00
2022-07-29T08:40:43.205Z,35.43
2022-07-29T08:43:10.599Z,36.10
2022-07-29T08:45:49.858Z,36.27
2022-07-29T08:48:21.234Z,36.06
2022-07-29T08:50:52.443Z,35.89
2022-07-29T08:53:19.884Z,36.20
2022-07-29T08:55:48.416Z,36.06
2022-07-29T08:58:16.123Z,36.27
2022-07-29T09:00:48.622Z,36.06
2022-07-29T09:03:19.361Z,35.89
2022-07-29T09:05:48.189Z,34.01
2022-07-29T09:08:16.494Z,32.56
2022-07-29T09:10:44.187Z,31.97
2022-07-29T09:13:11.756Z,32.01
2022-07-29T09:15:39.119Z,32.01
2022-07-29T09:18:06.768Z,31.56
2022-07-29T09:20:52.568Z,31.70
2022-07-29T09:23:23.105Z,31.37
2022-07-29T09:25:51.797Z,31.13
2022-07-29T09:28:19.232Z,31.36
2022-07-29T09:30:53.354Z,31.39
2022-07-29T09:33:23.986Z,31.29
2022-07-29T09:36:01.802Z,31.08
2022-07-29T09:38:30.054Z,31.22
2022-07-29T09:41:04.624Z,31.02
2022-07-29T09:43:34.328Z,31.11
2022-07-29T09:46:13.056Z,31.08
2022-07-29T09:48:40.666Z,31.43
2022-07-29T09:51:25.583Z,31.82
2022-07-29T09:53:57.618Z,32.02
2022-07-29T09:56:45.129Z,32.09
2022-07-29T09:59:15.464Z,32.02
2022-07-29T10:01:42.824Z,32.19
2022-07-29T10:04:10.265Z,32.02
2022-07-29T10:07:03.602Z,32.14
2022-07-29T10:09:32.663Z,31.64
2022-07-29T10:12:10.912Z,31.73
2022-07-29T10:14:38.391Z,31.66
2022-07-29T10:17:06.552Z,31.94
2022-07-29T10:19:34.727Z,31.70
2022-07-29T10:22:05.030Z,31.41
2022-07-29T10:24:32.679Z,31.27
2022-07-29T10:27:01.963Z,31.76
2022-07-29T10:29:30.285Z,31.73
2022-07-29T10:32:08.969Z,31.50
2022-07-29T10:35:10.423Z,31.51
2022-07-29T10:38:04.196Z,31.98
2022-07-29T10:41:21.803Z,32.08
2022-07-29T10:43:51.362Z,31.85
2022-07-29T10:46:19.665Z,32.27
2022-07-29T10:49:09.496Z,32.49
2022-07-29T10:52:06.373Z,32.24
2022-07-29T10:54:36.622Z,32.22
2022-07-29T10:57:13.786Z,32.17
2022-07-29T10:59:43.144Z,32.67
2022-07-29T11:02:41.808Z,32.28
2022-07-29T11:05:19.163Z,31.82
2022-07-29T11:08:20.136Z,31.98
2022-07-29T11:11:15.897Z,32.46
2022-07-29T11:13:46.623Z,32.87
2022-07-29T11:16:16.228Z,32.48
2022-07-29T11:19:13.822Z,32.67
2022-07-29T11:21:53.953Z,32.62
2022-07-29T11:24:30.183Z,32.56
2022-07-29T11:27:11.097Z,32.25
2022-07-29T11:29:41.525Z,32.36
2022-07-29T11:32:18.361Z,32.02
2022-07-29T11:35:17.408Z,32.04
2022-07-29T11:41:19.165Z,31.77
2022-07-29T11:44:00.755Z,31.91
2022-07-29T11:46:50.812Z,31.59
2022-07-29T11:49:31.711Z,31.61
2022-07-29T11:52:04.164Z,31.54
2022-07-29T11:54:57.406Z,31.46
2022-07-29T11:57:36.086Z,31.59
2022-07-29T12:00:12.731Z,31.53
2022-07-29T12:02:48.513Z,31.61
2022-07-29T12:05:23.972Z,31.57
2022-07-29T12:07:03.582Z,31.73
2022-07-29T12:08:12.673Z,31.57
2022-07-29T12:10:42.564Z,31.47
2022-07-29T12:13:11.372Z,31.54
2022-07-29T12:15:47.183Z,31.59
2022-07-29T12:18:16.604Z,31.53
2022-07-29T12:20:46.364Z,31.61
2022-07-29T12:23:13.768Z,31.71
2022-07-29T12:25:44.514Z,31.78
2022-07-29T12:28:26.706Z,31.63
2022-07-29T12:30:54.896Z,31.60
2022-07-29T12:33:26.432Z,31.44
2022-07-29T12:36:12.808Z,31.84
2022-07-29T12:38:44.956Z,32.27
2022-07-29T12:41:12.305Z,32.48
2022-07-29T12:43:53.526Z,32.43
2022-07-29T12:46:21.055Z,32.05
2022-07-29T12:48:52.183Z,31.98
2022-07-29T12:51:19.959Z,32.18
2022-07-29T12:54:16.845Z,32.22
2022-07-29T12:56:45.624Z,32.11
2022-07-29T12:59:20.716Z,31.90
2022-07-29T13:01:50.955Z,31.85
2022-07-29T13:04:29.292Z,31.99
2022-07-29T13:07:10.381Z,31.90
2022-07-29T13:09:42.763Z,31.97
2022-07-29T13:12:11.580Z,32.07
2022-07-29T13:14:39.904Z,31.88
2022-07-29T13:17:12.313Z,31.94
2022-07-29T13:19:50.789Z,32.02
2022-07-29T13:22:20.586Z,32.07
2022-07-29T13:24:51.760Z,31.99
2022-07-29T13:27:19.921Z,32.17
2022-07-29T13:29:47.552Z,32.17
2022-07-29T13:32:15.322Z,32.01
2022-07-29T13:34:42.618Z,32.18
2022-07-29T13:37:10.237Z,32.38
2022-07-29T13:39:38.589Z,32.43
2022-07-29T13:42:10.656Z,32.07
2022-07-29T13:44:38.666Z,31.88
2022-07-29T13:47:07.336Z,31.69
2022-07-29T13:49:35.113Z,31.70
2022-07-29T13:52:02.962Z,31.82
2022-07-29T13:54:30.343Z,31.74
2022-07-29T13:56:57.659Z,31.76
2022-07-29T13:59:25.152Z,31.90
2022-07-29T14:01:52.535Z,31.77
2022-07-29T14:04:19.940Z,31.88
2022-07-29T14:06:48.221Z,31.64
2022-07-29T14:09:16.670Z,31.60
2022-07-29T14:11:44.599Z,31.63
2022-07-29T14:14:12.619Z,31.71
2022-07-29T14:16:43.759Z,31.71
2022-07-29T14:19:16.465Z,31.67
2022-07-29T14:21:44.028Z,31.87
2022-07-29T14:24:18.051Z,31.99
2022-07-29T14:26:49.144Z,31.84
2022-07-29T14:29:16.688Z,31.84
2022-07-29T14:31:44.968Z,31.67
2022-07-29T14:34:12.341Z,31.54
2022-07-29T14:36:39.744Z,31.40
2022-07-29T14:39:06.974Z,31.26
2022-07-29T14:41:34.514Z,31.40
2022-07-29T14:44:01.814Z,31.50
2022-07-29T14:46:29.749Z,31.22
2022-07-29T14:48:57.177Z,31.09
2022-07-29T14:51:24.636Z,30.98
2022-07-29T14:54:00.068Z,30.93
2022-07-29T14:56:37.059Z,30.83
2022-07-29T14:59:05.166Z,30.67
2022-07-29T15:01:32.587Z,30.61
2022-07-29T15:04:00.112Z,30.43
2022-07-29T15:06:27.763Z,30.30
2022-07-29T15:08:55.312Z,30.35
2022-07-29T15:11:22.936Z,30.23
2022-07-29T15:13:50.311Z,30.21
2022-07-29T15:16:18.261Z,30.27
2022-07-29T15:18:46.189Z,30.24
2022-07-29T15:21:13.600Z,30.24
2022-07-29T15:23:40.972Z,30.27
2022-07-29T15:26:08.356Z,30.27
2022-07-29T15:28:35.770Z,30.33
2022-07-29T15:31:03.152Z,30.25
2022-07-29T15:33:30.576Z,30.20
2022-07-29T15:35:58.159Z,30.09
2022-07-29T15:38:28.666Z,30.06
2022-07-29T15:40:56.385Z,29.97
2022-07-29T15:43:24.185Z,30.03
2022-07-29T15:46:12.501Z,29.97
2022-07-29T15:48:40.398Z,29.90
2022-07-29T15:51:07.977Z,29.90
2022-07-29T15:53:35.440Z,29.89
2022-07-29T15:56:03.043Z,29.79
2022-07-29T15:58:31.110Z,29.77
2022-07-29T16:00:58.939Z,29.83
2022-07-29T16:03:26.583Z,29.86
2022-07-29T16:05:54.023Z,29.83
2022-07-29T16:08:21.385Z,29.86
2022-07-29T16:10:48.778Z,29.82
2022-07-29T16:13:17.865Z,29.77
2022-07-29T16:15:46.711Z,29.77
2022-07-29T16:18:30.806Z,29.79
2022-07-29T16:20:58.335Z,29.76
2022-07-29T16:23:25.857Z,29.80
2022-07-29T16:26:01.292Z,29.82
2022-07-29T16:28:30.585Z,29.79
2022-07-29T16:30:57.988Z,29.80
2022-07-29T16:33:25.369Z,29.77
2022-07-29T16:35:53.180Z,29.73
2022-07-29T16:38:20.629Z,29.73
2022-07-29T16:40:47.860Z,29.70
2022-07-29T16:43:15.366Z,29.66
2022-07-29T16:45:46.187Z,29.67
2022-07-29T16:48:14.813Z,29.65
2022-07-29T16:50:43.274Z,29.63
2022-07-29T16:53:11.067Z,29.69
2022-07-29T16:55:38.628Z,29.72
2022-07-29T16:58:10.695Z,29.70
2022-07-29T17:00:38.205Z,29.70
2022-07-29T17:03:06.032Z,29.72
2022-07-29T17:05:52.584Z,29.72
2022-07-29T17:08:20.777Z,29.77
2022-07-29T17:10:48.183Z,29.77
2022-07-29T17:13:15.711Z,29.72
2022-07-29T17:15:43.410Z,29.72
2022-07-29T17:18:12.180Z,29.86
2022-07-29T17:20:41.614Z,29.90
2022-07-29T17:23:09.158Z,30.03
2022-07-29T17:25:36.522Z,29.86
2022-07-29T17:28:04.176Z,29.90
2022-07-29T17:30:31.606Z,29.93
2022-07-29T17:32:59.112Z,29.72
2022-07-29T17:35:45.046Z,29.76
2022-07-29T17:38:12.766Z,29.70
2022-07-29T17:40:40.125Z,29.61
2022-07-29T17:43:09.417Z,29.52
2022-07-29T17:45:49.901Z,29.49
2022-07-29T17:48:19.002Z,29.41
2022-07-29T17:50:47.172Z,29.34
2022-07-29T17:53:15.793Z,29.28
2022-07-29T17:55:48.979Z,29.31
2022-07-29T17:58:16.442Z,29.27
2022-07-29T18:00:44.117Z,29.24
2022-07-29T18:03:11.743Z,28.94
2022-07-29T18:05:39.081Z,28.77
2022-07-29T18:08:06.477Z,28.66
2022-07-29T18:10:34.028Z,28.35
2022-07-29T18:13:01.411Z,28.12
2022-07-29T18:15:28.831Z,27.99
2022-07-29T18:17:57.699Z,27.87
2022-07-29T18:20:26.256Z,27.87
2022-07-29T18:22:53.612Z,27.67
2022-07-29T18:25:20.990Z,27.57
2022-07-29T18:27:48.568Z,27.46
2022-07-29T18:30:15.819Z,27.34
2022-07-29T18:32:59.051Z,27.31
2022-07-29T18:35:26.922Z,27.37
2022-07-29T18:38:02.226Z,27.22
2022-07-29T18:40:30.323Z,27.24
2022-07-29T18:42:57.923Z,27.19
2022-07-29T18:45:28.479Z,27.06
2022-07-29T18:47:56.783Z,26.98
2022-07-29T18:50:28.862Z,27.02
2022-07-29T18:52:59.024Z,26.98
2022-07-29T18:55:26.772Z,26.89
2022-07-29T18:57:56.583Z,26.75
2022-07-29T19:00:25.245Z,26.59
2022-07-29T19:02:53.025Z,26.47
2022-07-29T19:05:20.868Z,26.49
2022-07-29T19:07:48.231Z,26.43
2022-07-29T19:10:15.658Z,26.41
2022-07-29T19:12:43.350Z,26.47
2022-07-29T19:15:11.027Z,26.25
2022-07-29T19:17:38.942Z,26.12
2022-07-29T19:20:07.383Z,26.04
2022-07-29T19:22:35.023Z,25.96
2022-07-29T19:25:02.398Z,25.85
2022-07-29T19:27:29.788Z,25.90
2022-07-29T19:29:59.405Z,25.85
2022-07-29T19:32:27.093Z,25.76
2022-07-29T19:35:13.013Z,25.63
2022-07-29T19:37:40.741Z,25.72
2022-07-29T19:40:08.297Z,25.65
2022-07-29T19:42:35.624Z,25.56
2022-07-29T19:45:02.968Z,25.58
2022-07-29T19:47:30.563Z,25.52
2022-07-29T19:49:58.084Z,25.32
2022-07-29T19:52:25.550Z,25.31
2022-07-29T19:54:53.263Z,25.19
2022-07-29T19:57:20.857Z,25.18
2022-07-29T19:59:48.199Z,25.11
2022-07-29T20:02:17.097Z,25.08
2022-07-29T20:04:44.538Z,25.19
2022-07-29T20:07:13.328Z,25.18
2022-07-29T20:09:41.063Z,25.25
2022-07-29T20:12:09.542Z,25.31
2022-07-29T20:14:37.424Z,25.12
2022-07-29T20:17:05.124Z,25.04
2022-07-29T20:19:33.298Z,25.07
2022-07-29T20:22:00.828Z,25.22
2022-07-29T20:24:28.139Z,25.10
2022-07-29T20:26:55.481Z,25.15
2022-07-29T20:29:22.945Z,25.08
2022-07-29T20:31:53.335Z,25.01
2022-07-29T20:34:24.276Z,25.11
2022-07-29T20:36:51.564Z,25.17
2022-07-29T20:39:21.226Z,25.10
2022-07-29T20:41:49.043Z,24.98
2022-07-29T20:44:18.998Z,25.10
2022-07-29T20:46:46.914Z,25.07
2022-07-29T20:49:14.275Z,25.12
2022-07-29T20:51:43.710Z,25.10
2022-07-29T20:54:11.987Z,24.98
2022-07-29T20:56:39.698Z,24.91
2022-07-29T20:59:07.845Z,24.86
2022-07-29T21:01:35.405Z,24.84
2022-07-29T21:04:03.361Z,24.90
2022-07-29T21:06:31.074Z,24.86
2022-07-29T21:08:59.929Z,24.95
2022-07-29T21:11:44.346Z,24.87
2022-07-29T21:14:36.742Z,24.90
2022-07-29T21:17:07.923Z,24.87
2022-07-29T21:19:35.532Z,24.81
2022-07-29T21:22:03.001Z,24.91
2022-07-29T21:24:30.380Z,24.94
2022-07-29T21:27:21.328Z,24.91
2022-07-29T21:29:49.500Z,24.92
2022-07-29T21:32:29.679Z,24.92
2022-07-29T21:34:58.123Z,24.90
2022-07-29T21:37:25.412Z,24.80
2022-07-29T21:39:52.948Z,24.67
2022-07-29T21:42:20.351Z,24.70
2022-07-29T21:44:47.825Z,24.68
2022-07-29T21:47:15.256Z,24.64
2022-07-29T21:49:42.635Z,24.67
2022-07-29T21:52:09.909Z,24.71
2022-07-29T21:54:38.906Z,24.77
2022-07-29T21:57:07.058Z,24.76
2022-07-29T21:59:34.752Z,24.80
2022-07-29T22:02:02.090Z,24.78
2022-07-29T22:04:29.785Z,24.67
2022-07-29T22:06:57.727Z,24.52
2022-07-29T22:09:25.548Z,24.32
2022-07-29T22:11:52.948Z,24.23
2022-07-29T22:14:20.807Z,24.25
2022-07-29T22:16:48.152Z,24.35
2022-07-29T22:19:15.610Z,24.41
2022-07-29T22:21:43.090Z,24.50
2022-07-29T22:24:11.340Z,24.55
2022-07-29T22:26:38.853Z,24.66
2022-07-29T22:29:06.609Z,24.77
2022-07-29T22:31:34.051Z,24.78
2022-07-29T22:34:01.445Z,24.87
2022-07-29T22:36:28.864Z,24.97
2022-07-29T22:38:56.189Z,24.97
2022-07-29T22:41:23.493Z,24.90
2022-07-29T22:43:50.877Z,24.91
2022-07-29T22:46:18.577Z,24.91
2022-07-29T22:48:46.420Z,25.04
2022-07-29T22:51:13.784Z,25.12
2022-07-29T22:53:41.769Z,24.92
2022-07-29T22:56:09.143Z,24.98
2022-07-29T22:58:36.474Z,24.97
2022-07-29T23:01:03.985Z,24.91
2022-07-29T23:03:31.577Z,24.81
2022-07-29T23:05:58.858Z,24.81
2022-07-29T23:08:26.266Z,24.88
2022-07-29T23:10:53.619Z,24.97
2022-07-29T23:13:20.967Z,24.86
2022-07-29T23:15:48.418Z,24.83
2022-07-29T23:18:15.853Z,24.83
2022-07-29T23:20:43.938Z,24.68
2022-07-29T23:23:11.408Z,24.68
2022-07-29T23:25:38.952Z,24.74
2022-07-29T23:28:06.420Z,24.76
2022-07-29T23:30:39.014Z,24.81
2022-07-29T23:33:06.331Z,25.05
2022-07-29T23:35:33.890Z,24.97
2022-07-29T23:38:01.255Z,24.90
2022-07-29T23:40:28.751Z,24.91
2022-07-29T23:42:56.170Z,24.91
2022-07-29T23:45:23.686Z,24.92
2022-07-29T23:48:09.770Z,24.90
2022-07-29T23:50:37.115Z,24.87
2022-07-29T23:53:04.539Z,24.87
2022-07-29T23:55:37.546Z,24.88
2022-07-29T23:58:06.376Z,24.86
